Time;durP1;ratioP1;P1;durP2;ratioP2;P2;SDS_P1;SDS_P2;PMS_P1;PMS_P2;Temp;Humidity;BMP_temperature;BMP_pressure;BME280_temperature;BME280_humidity;BME280_pressure;Samples;Min_cycle;Max_cycle;Signal;HPM_P1;HPM_P2
2022/06/12 00:00:46;;;;;;;23.08;5.97;;;;;;;;;;4910928;29;20058;-81
2022/06/12 00:03:15;;;;;;;25.48;5.97;;;;;;;;;;4875718;29;20059;-81
2022/06/12 00:05:42;;;;;;;28.63;6.28;;;;;;;;;;4909126;29;20040;-80
2022/06/12 00:08:09;;;;;;;25.13;5.97;;;;;;;;;;4912154;29;20079;-81
2022/06/12 00:10:36;;;;;;;23.85;4.97;;;;;;;;;;4895108;29;20036;-78
2022/06/12 00:13:03;;;;;;;22.95;7.03;;;;;;;;;;4913849;29;20156;-81
2022/06/12 00:15:30;;;;;;;28.77;5.47;;;;;;;;;;4891657;29;20054;-81
2022/06/12 00:17:56;;;;;;;19.00;5.13;;;;;;;;;;4879256;29;20047;-78
2022/06/12 00:20:23;;;;;;;21.45;5.10;;;;;;;;;;4892108;29;20043;-79
2022/06/12 00:22:50;;;;;;;18.08;5.18;;;;;;;;;;4895022;29;20098;-83
2022/06/12 00:25:18;;;;;;;23.40;5.07;;;;;;;;;;4911876;29;20063;-83
2022/06/12 00:27:44;;;;;;;19.35;5.32;;;;;;;;;;4908562;29;20437;-80
2022/06/12 00:30:12;;;;;;;20.00;5.60;;;;;;;;;;4893058;29;20051;-83
2022/06/12 00:32:39;;;;;;;17.27;5.05;;;;;;;;;;4909294;29;20044;-78
2022/06/12 00:35:07;;;;;;;20.73;4.80;;;;;;;;;;4911770;29;20052;-83
2022/06/12 00:37:34;;;;;;;16.58;4.72;;;;;;;;;;4907844;29;20044;-80
2022/06/12 00:40:00;;;;;;;18.48;5.00;;;;;;;;;;4913649;29;20080;-82
2022/06/12 00:42:35;;;;;;;12.65;4.32;;;;;;;;;;4897118;29;20040;-82
2022/06/12 00:45:02;;;;;;;18.67;3.85;;;;;;;;;;4913711;29;20051;-84
2022/06/12 00:47:28;;;;;;;18.55;4.07;;;;;;;;;;4909440;29;20064;-81
2022/06/12 00:49:56;;;;;;;19.10;4.65;;;;;;;;;;4911942;29;20040;-79
2022/06/12 00:52:30;;;;;;;11.88;3.83;;;;;;;;;;4913029;29;20066;-80
2022/06/12 00:54:59;;;;;;;13.70;4.00;;;;;;;;;;4910699;29;20136;-81
2022/06/12 00:57:25;;;;;;;14.93;3.60;;;;;;;;;;4911026;29;20055;-78
2022/06/12 00:59:56;;;;;;;14.98;3.70;;;;;;;;;;4909827;29;20527;-78
2022/06/12 01:02:24;;;;;;;15.10;3.75;;;;;;;;;;4895941;29;20779;-78
2022/06/12 01:07:39;;;;;;;10.45;3.33;;;;;;;;;;4895208;29;20040;-81
2022/06/12 01:10:08;;;;;;;10.27;3.15;;;;;;;;;;4898335;29;20044;-84
2022/06/12 01:12:36;;;;;;;10.88;3.20;;;;;;;;;;4915674;29;20048;-82
2022/06/12 01:15:11;;;;;;;12.43;3.20;;;;;;;;;;4912580;29;20044;-83
2022/06/12 01:17:39;;;;;;;12.05;2.97;;;;;;;;;;4898749;29;20092;-81
2022/06/12 01:20:10;;;;;;;8.15;2.55;;;;;;;;;;4916176;29;20048;-83
2022/06/12 01:22:54;;;;;;;9.35;2.70;;;;;;;;;;4914207;29;20051;-81
2022/06/12 01:25:21;;;;;;;8.38;2.75;;;;;;;;;;4915093;29;20135;-82
2022/06/12 01:28:05;;;;;;;12.50;2.70;;;;;;;;;;4915187;29;20068;-83
2022/06/12 01:30:38;;;;;;;9.85;3.35;;;;;;;;;;4893819;29;20048;-79
2022/06/12 01:33:11;;;;;;;8.48;2.75;;;;;;;;;;4899809;29;20052;-79
2022/06/12 01:35:37;;;;;;;10.30;3.00;;;;;;;;;;4898490;29;20127;-82
2022/06/12 01:38:19;;;;;;;8.57;3.05;;;;;;;;;;4897551;29;20151;-84
2022/06/12 01:40:51;;;;;;;9.90;3.30;;;;;;;;;;4904379;29;20412;-77
2022/06/12 01:43:32;;;;;;;7.90;2.35;;;;;;;;;;4899630;29;20063;-82
2022/06/12 01:46:09;;;;;;;11.48;3.17;;;;;;;;;;4901516;29;20055;-81
2022/06/12 01:48:49;;;;;;;11.48;3.15;;;;;;;;;;4897698;29;20060;-81
2022/06/12 01:51:19;;;;;;;10.52;2.70;;;;;;;;;;4917847;29;20052;-79
2022/06/12 01:53:54;;;;;;;12.60;3.05;;;;;;;;;;4903481;29;20043;-80
2022/06/12 01:56:30;;;;;;;9.13;2.80;;;;;;;;;;4922556;29;20052;-83
2022/06/12 01:59:15;;;;;;;11.00;3.30;;;;;;;;;;4922502;29;20044;-76
2022/06/12 02:01:47;;;;;;;7.47;2.60;;;;;;;;;;4886746;29;20048;-81
2022/06/12 02:04:28;;;;;;;14.57;3.55;;;;;;;;;;4904963;29;20052;-81
2022/06/12 02:06:59;;;;;;;10.25;3.00;;;;;;;;;;4896398;29;20044;-78
2022/06/12 02:09:27;;;;;;;8.13;2.50;;;;;;;;;;4912711;29;20036;-83
2022/06/12 02:14:54;;;;;;;12.48;3.00;;;;;;;;;;4915042;29;20051;-81
2022/06/12 02:17:23;;;;;;;9.50;3.00;;;;;;;;;;4910038;29;20072;-84
2022/06/12 02:19:50;;;;;;;11.23;2.85;;;;;;;;;;4902199;29;20082;-81
2022/06/12 02:22:24;;;;;;;8.90;2.85;;;;;;;;;;4904936;29;20734;-82
2022/06/12 02:24:53;;;;;;;11.85;3.53;;;;;;;;;;4919974;29;20055;-80
2022/06/12 02:27:23;;;;;;;11.45;3.15;;;;;;;;;;4905846;29;20051;-79
2022/06/12 02:29:53;;;;;;;9.15;2.55;;;;;;;;;;4926209;29;20103;-85
2022/06/12 02:32:25;;;;;;;9.20;2.85;;;;;;;;;;4911006;29;20040;-86
2022/06/12 02:34:54;;;;;;;12.32;2.88;;;;;;;;;;4922593;29;20046;-79
2022/06/12 02:37:24;;;;;;;11.27;2.80;;;;;;;;;;4905787;29;20040;-79
2022/06/12 02:39:54;;;;;;;12.77;3.65;;;;;;;;;;4919017;29;20510;-84
2022/06/12 02:42:26;;;;;;;13.48;3.33;;;;;;;;;;4905315;29;20044;-85
2022/06/12 02:45:11;;;;;;;13.82;3.40;;;;;;;;;;4918871;29;20191;-82
2022/06/12 02:47:38;;;;;;;12.35;2.88;;;;;;;;;;4899390;29;20072;-79
2022/06/12 02:50:06;;;;;;;10.40;2.80;;;;;;;;;;4913727;29;20051;-79
2022/06/12 02:52:43;;;;;;;11.57;3.25;;;;;;;;;;4914085;29;20044;-77
2022/06/12 02:55:10;;;;;;;13.68;3.97;;;;;;;;;;4913890;29;20110;-79
2022/06/12 02:57:39;;;;;;;12.38;3.25;;;;;;;;;;4916378;29;20047;-84
2022/06/12 03:00:14;;;;;;;9.95;3.28;;;;;;;;;;4915009;29;20382;-85
2022/06/12 03:02:46;;;;;;;11.65;3.05;;;;;;;;;;4913353;29;20044;-84
2022/06/12 03:05:20;;;;;;;12.45;3.88;;;;;;;;;;4913632;29;20131;-81
2022/06/12 03:07:47;;;;;;;12.55;3.10;;;;;;;;;;4920343;29;20604;-79
2022/06/12 03:10:15;;;;;;;13.70;3.17;;;;;;;;;;4915841;29;20085;-81
2022/06/12 03:12:41;;;;;;;9.35;2.97;;;;;;;;;;4887772;29;20064;-83
2022/06/12 03:15:11;;;;;;;16.65;3.45;;;;;;;;;;4898366;29;20056;-80
2022/06/12 03:17:37;;;;;;;11.25;2.83;;;;;;;;;;4896918;29;20044;-79
2022/06/12 03:20:04;;;;;;;11.73;3.38;;;;;;;;;;4897647;29;20609;-81
2022/06/12 03:22:47;;;;;;;14.23;3.60;;;;;;;;;;4913838;29;20071;-80
2022/06/12 03:25:22;;;;;;;14.55;3.97;;;;;;;;;;4897853;29;20059;-79
2022/06/12 03:27:53;;;;;;;8.95;3.65;;;;;;;;;;4915952;29;20199;-79
2022/06/12 03:30:25;;;;;;;16.23;3.28;;;;;;;;;;4895920;29;20052;-82
2022/06/12 03:32:51;;;;;;;14.70;4.40;;;;;;;;;;4914427;29;20047;-79
2022/06/12 03:35:27;;;;;;;14.18;3.50;;;;;;;;;;4896657;29;20048;-80
2022/06/12 03:38:07;;;;;;;12.60;3.55;;;;;;;;;;4898480;29;20075;-80
2022/06/12 03:40:39;;;;;;;11.32;2.90;;;;;;;;;;4911995;29;20087;-82
2022/06/12 03:43:18;;;;;;;9.40;3.00;;;;;;;;;;4916407;29;20100;-82
2022/06/12 03:46:10;;;;;;;15.57;3.35;;;;;;;;;;4899233;29;20048;-79
2022/06/12 03:48:40;;;;;;;9.82;3.65;;;;;;;;;;4879473;29;20114;-83
2022/06/12 03:51:26;;;;;;;10.30;3.50;;;;;;;;;;4900848;29;20072;-80
2022/06/12 03:54:11;;;;;;;13.18;4.03;;;;;;;;;;4881941;29;20062;-80
2022/06/12 03:59:48;;;;;;;13.48;3.55;;;;;;;;;;4917300;29;20055;-82
2022/06/12 04:02:15;;;;;;;15.82;3.53;;;;;;;;;;4900552;29;20140;-81
2022/06/12 04:04:43;;;;;;;12.95;3.55;;;;;;;;;;4901677;29;20052;-83
2022/06/12 04:07:10;;;;;;;13.13;3.60;;;;;;;;;;4917359;29;20059;-79
2022/06/12 04:09:38;;;;;;;13.95;3.70;;;;;;;;;;4915961;29;20029;-83
2022/06/12 04:12:07;;;;;;;12.80;3.70;;;;;;;;;;4902891;29;20461;-81
2022/06/12 04:14:42;;;;;;;14.32;4.28;;;;;;;;;;4896755;29;20564;-78
2022/06/12 04:17:11;;;;;;;11.73;3.78;;;;;;;;;;4882090;29;20694;-79
2022/06/12 04:20:19;;;;;;;15.00;3.50;;;;;;;;;;4892706;29;20051;-78
2022/06/12 04:22:46;;;;;;;15.27;3.92;;;;;;;;;;4894551;29;20143;-81
2022/06/12 04:25:26;;;;;;;15.05;3.65;;;;;;;;;;4898602;29;20476;-78
2022/06/12 04:27:52;;;;;;;15.35;4.13;;;;;;;;;;4909791;29;20548;-79
2022/06/12 04:30:38;;;;;;;19.42;4.60;;;;;;;;;;4894951;29;20130;-78
2022/06/12 04:33:23;;;;;;;14.07;4.28;;;;;;;;;;4894125;29;20069;-83
2022/06/12 04:35:57;;;;;;;12.27;3.13;;;;;;;;;;4893657;29;20049;-78
2022/06/12 04:38:23;;;;;;;;;;;;;;;;;;4895791;29;20560;-78
2022/06/12 04:40:49;;;;;;;15.35;3.85;;;;;;;;;;4911354;29;20022;-77
2022/06/12 04:43:16;;;;;;;17.00;3.20;;;;;;;;;;4910343;29;20048;-79
2022/06/12 04:45:43;;;;;;;13.02;3.50;;;;;;;;;;4892455;29;20104;-83
2022/06/12 04:48:13;;;;;;;10.05;3.05;;;;;;;;;;4895352;29;20048;-82
2022/06/12 04:50:42;;;;;;;19.38;3.13;;;;;;;;;;4911349;29;20052;-80
2022/06/12 04:53:08;;;;;;;14.43;3.22;;;;;;;;;;4910149;29;20519;-82
2022/06/12 04:55:36;;;;;;;10.23;3.17;;;;;;;;;;4894145;29;20093;-80
2022/06/12 04:58:05;;;;;;;10.90;3.08;;;;;;;;;;4909302;29;20055;-79
2022/06/12 05:00:31;;;;;;;10.73;2.75;;;;;;;;;;4911013;29;20055;-84
2022/06/12 05:02:58;;;;;;;15.10;3.72;;;;;;;;;;4893190;29;20080;-79
2022/06/12 05:05:25;;;;;;;11.68;2.85;;;;;;;;;;4881743;29;20051;-82
2022/06/12 05:07:51;;;;;;;15.05;3.42;;;;;;;;;;4898587;29;20044;-79
2022/06/12 05:10:18;;;;;;;16.80;3.15;;;;;;;;;;4921937;29;20054;-81
2022/06/12 05:12:44;;;;;;;10.32;2.90;;;;;;;;;;4926184;29;20048;-81
2022/06/12 05:15:12;;;;;;;12.88;3.08;;;;;;;;;;4931655;29;20060;-83
2022/06/12 05:17:39;;;;;;;16.85;3.38;;;;;;;;;;4932414;29;20048;-83
2022/06/12 05:20:06;;;;;;;11.90;3.42;;;;;;;;;;4921653;29;20035;-83
2022/06/12 05:22:32;;;;;;;15.10;4.03;;;;;;;;;;4921908;29;20043;-80
2022/06/12 05:24:58;;;;;;;16.45;2.60;;;;;;;;;;4900070;29;20044;-80
2022/06/12 05:27:32;;;;;;;11.93;2.80;;;;;;;;;;4900330;29;20056;-78
2022/06/12 05:29:58;;;;;;;15.60;3.42;;;;;;;;;;4892950;29;20060;-81
2022/06/12 05:32:24;;;;;;;13.13;3.28;;;;;;;;;;4915522;29;20115;-79
2022/06/12 05:34:50;;;;;;;17.00;3.55;;;;;;;;;;4897557;29;20082;-78
2022/06/12 05:37:17;;;;;;;11.77;3.65;;;;;;;;;;4916073;29;20095;-78
2022/06/12 05:39:43;;;;;;;13.85;3.40;;;;;;;;;;4914558;29;20083;-82
2022/06/12 05:42:09;;;;;;;15.35;3.53;;;;;;;;;;4915911;29;20575;-77
2022/06/12 05:44:36;;;;;;;13.85;3.60;;;;;;;;;;4918715;29;20119;-79
2022/06/12 05:47:02;;;;;;;15.05;3.80;;;;;;;;;;4898059;29;20135;-79
2022/06/12 05:49:29;;;;;;;17.13;3.88;;;;;;;;;;4916298;29;20044;-82
2022/06/12 05:51:55;;;;;;;13.88;3.50;;;;;;;;;;4898874;29;20425;-79
2022/06/12 05:54:21;;;;;;;16.30;4.35;;;;;;;;;;4915596;29;20056;-77
2022/06/12 05:56:47;;;;;;;9.80;3.10;;;;;;;;;;4914160;29;20044;-78
2022/06/12 05:59:14;;;;;;;14.15;3.75;;;;;;;;;;4912504;29;20040;-78
2022/06/12 06:01:40;;;;;;;13.18;4.25;;;;;;;;;;4896141;29;20044;-83
2022/06/12 06:04:07;;;;;;;20.48;4.47;;;;;;;;;;4897769;29;20115;-80
2022/06/12 06:06:35;;;;;;;15.73;3.55;;;;;;;;;;4917073;29;20044;-79
2022/06/12 06:09:02;;;;;;;20.05;4.78;;;;;;;;;;4911566;29;20055;-78
2022/06/12 06:11:29;;;;;;;14.57;4.15;;;;;;;;;;4913821;29;20056;-77
2022/06/12 06:13:55;;;;;;;15.68;3.83;;;;;;;;;;4911145;29;20074;-80
2022/06/12 06:16:22;;;;;;;17.23;4.95;;;;;;;;;;4913181;29;20052;-79
2022/06/12 06:18:48;;;;;;;19.42;4.40;;;;;;;;;;4915077;29;20503;-79
2022/06/12 06:21:15;;;;;;;18.83;4.72;;;;;;;;;;4914313;29;20067;-85
2022/06/12 06:23:42;;;;;;;20.88;4.35;;;;;;;;;;4914818;29;20048;-79
2022/06/12 06:26:09;;;;;;;23.15;4.43;;;;;;;;;;4915452;29;20056;-82
2022/06/12 06:28:35;;;;;;;17.23;4.45;;;;;;;;;;4916936;29;20158;-79
2022/06/12 06:31:01;;;;;;;20.90;4.93;;;;;;;;;;4897507;29;20043;-78
2022/06/12 06:33:27;;;;;;;26.23;5.65;;;;;;;;;;4917899;29;20051;-81
2022/06/12 06:35:53;;;;;;;22.77;5.32;;;;;;;;;;4915788;29;20449;-83
2022/06/12 06:38:19;;;;;;;24.17;5.40;;;;;;;;;;4916069;29;20119;-79
2022/06/12 06:40:46;;;;;;;26.10;5.38;;;;;;;;;;4917853;29;20032;-83
2022/06/12 06:43:12;;;;;;;21.55;5.00;;;;;;;;;;4917440;29;20036;-84
2022/06/12 06:48:24;;;;;;;19.10;5.38;;;;;;;;;;4912624;29;20301;-79
2022/06/12 06:50:50;;;;;;;21.25;4.82;;;;;;;;;;4914084;29;20044;-80
2022/06/12 06:53:17;;;;;;;28.63;6.47;;;;;;;;;;4912653;29;20139;-78
2022/06/12 06:55:43;;;;;;;22.13;4.97;;;;;;;;;;4914368;29;20040;-80
2022/06/12 06:58:15;;;;;;;22.38;6.22;;;;;;;;;;4913225;29;20048;-82
2022/06/12 07:00:42;;;;;;;23.08;5.20;;;;;;;;;;4917843;29;20056;-79
2022/06/12 07:03:08;;;;;;;30.08;6.32;;;;;;;;;;4881158;29;20515;-81
2022/06/12 07:05:35;;;;;;;28.92;4.85;;;;;;;;;;4915047;29;20051;-80
2022/06/12 07:08:01;;;;;;;21.55;5.47;;;;;;;;;;4896290;29;20454;-80
2022/06/12 07:10:29;;;;;;;18.45;4.40;;;;;;;;;;4913854;29;20512;-79
2022/06/12 07:12:56;;;;;;;22.85;4.90;;;;;;;;;;4883878;29;20050;-76
2022/06/12 07:15:22;;;;;;;22.27;5.10;;;;;;;;;;4923953;29;20695;-81
2022/06/12 07:17:54;;;;;;;22.95;5.43;;;;;;;;;;4906117;29;20116;-85
2022/06/12 07:20:21;;;;;;;21.65;4.25;;;;;;;;;;4889380;29;20126;-87
2022/06/12 07:22:47;;;;;;;19.02;4.47;;;;;;;;;;4919056;29;20040;-85
2022/06/12 07:25:14;;;;;;;23.25;4.45;;;;;;;;;;4915458;29;20059;-82
2022/06/12 07:27:40;;;;;;;20.63;4.32;;;;;;;;;;4906681;29;20095;-83
2022/06/12 07:30:09;;;;;;;18.92;4.47;;;;;;;;;;4921133;29;20140;-83
2022/06/12 07:32:35;;;;;;;22.75;4.60;;;;;;;;;;4921265;29;20067;-78
2022/06/12 07:35:03;;;;;;;26.67;4.90;;;;;;;;;;4905357;29;20048;-83
2022/06/12 07:37:30;;;;;;;22.75;4.35;;;;;;;;;;4921306;29;20044;-87
2022/06/12 07:40:07;;;;;;;24.55;4.82;;;;;;;;;;4921907;29;20091;-84
2022/06/12 07:42:33;;;;;;;21.33;4.63;;;;;;;;;;4918626;29;20115;-87
2022/06/12 07:44:59;;;;;;;24.60;4.80;;;;;;;;;;4926302;29;20064;-87
2022/06/12 07:47:27;;;;;;;20.45;4.90;;;;;;;;;;4888022;29;20048;-86
2022/06/12 07:49:53;;;;;;;23.08;4.65;;;;;;;;;;4924158;29;20580;-83
2022/06/12 07:52:21;;;;;;;19.30;4.55;;;;;;;;;;4924736;29;20040;-87
2022/06/12 07:54:47;;;;;;;20.38;4.68;;;;;;;;;;4918153;29;20104;-83
2022/06/12 07:57:13;;;;;;;19.08;4.28;;;;;;;;;;4916096;29;20127;-86
2022/06/12 07:59:45;;;;;;;18.17;3.67;;;;;;;;;;4920718;29;20039;-82
2022/06/12 08:02:15;;;;;;;21.13;4.53;;;;;;;;;;4903823;29;20509;-88
2022/06/12 08:04:41;;;;;;;21.38;4.75;;;;;;;;;;4915647;29;20287;-86
2022/06/12 08:07:07;;;;;;;19.58;4.75;;;;;;;;;;4923615;29;20044;-81
2022/06/12 08:09:33;;;;;;;20.25;5.40;;;;;;;;;;4913546;29;20083;-77
2022/06/12 08:12:03;;;;;;;18.48;4.57;;;;;;;;;;4928571;29;20056;-85
2022/06/12 08:14:29;;;;;;;20.50;4.22;;;;;;;;;;4929637;29;20021;-87
2022/06/12 08:16:56;;;;;;;18.75;4.70;;;;;;;;;;4931661;29;20043;-84
2022/06/12 08:25:48;;;;;;;17.33;3.78;;;;;;;;;;4903783;29;20052;-86
2022/06/12 08:28:14;;;;;;;21.35;4.57;;;;;;;;;;4918418;29;20121;-78
2022/06/12 08:30:40;;;;;;;17.20;3.70;;;;;;;;;;4917417;29;20047;-78
2022/06/12 08:33:06;;;;;;;16.67;4.30;;;;;;;;;;4914655;29;20052;-87
2022/06/12 08:35:32;;;;;;;15.02;3.42;;;;;;;;;;4916396;29;20037;-88
2022/06/12 08:37:59;;;;;;;23.85;4.53;;;;;;;;;;4899174;29;20087;-87
2022/06/12 08:40:32;;;;;;;16.17;4.20;;;;;;;;;;4915239;29;20052;-86
2022/06/12 08:43:17;;;;;;;23.20;4.97;;;;;;;;;;4902994;29;20067;-77
2022/06/12 08:45:46;;;;;;;16.20;3.58;;;;;;;;;;4902096;29;20055;-82
2022/06/12 08:48:26;;;;;;;12.80;3.33;;;;;;;;;;4915286;29;20036;-88
2022/06/12 08:50:55;;;;;;;12.38;2.50;;;;;;;;;;4915820;29;20048;-87
2022/06/12 08:53:39;;;;;;;13.00;3.22;;;;;;;;;;4916777;29;20044;-81
2022/06/12 08:56:08;;;;;;;15.57;3.30;;;;;;;;;;4916267;29;20091;-86
2022/06/12 08:58:43;;;;;;;15.07;3.40;;;;;;;;;;4884410;29;20139;-85
2022/06/12 09:01:10;;;;;;;14.35;3.45;;;;;;;;;;4916479;29;20047;-81
2022/06/12 09:03:38;;;;;;;14.50;3.67;;;;;;;;;;4915895;29;20045;-82
2022/06/12 09:06:23;;;;;;;15.38;3.45;;;;;;;;;;4916977;29;20048;-84
2022/06/12 09:08:49;;;;;;;13.13;2.78;;;;;;;;;;4914689;29;20044;-84
2022/06/12 09:11:21;;;;;;;13.55;3.47;;;;;;;;;;4917455;29;20125;-83
2022/06/12 09:13:59;;;;;;;10.82;2.70;;;;;;;;;;4920509;29;20051;-86
2022/06/12 09:16:34;;;;;;;15.93;3.55;;;;;;;;;;4917192;29;20056;-87
2022/06/12 09:19:24;;;;;;;13.80;3.25;;;;;;;;;;4919069;29;20497;-80
2022/06/12 09:22:14;;;;;;;14.35;3.28;;;;;;;;;;4910389;29;20127;-85
2022/06/12 09:24:54;;;;;;;13.02;3.00;;;;;;;;;;4906760;29;20052;-80
2022/06/12 09:27:20;;;;;;;10.07;2.97;;;;;;;;;;4920072;29;20059;-84
2022/06/12 09:29:46;;;;;;;10.68;2.67;;;;;;;;;;4919806;29;20044;-80
2022/06/12 09:32:12;;;;;;;9.55;2.80;;;;;;;;;;4893942;29;22988;-84
2022/06/12 09:34:48;;;;;;;13.25;3.15;;;;;;;;;;4911578;29;20501;-81
2022/06/12 09:40:12;;;;;;;11.27;2.80;;;;;;;;;;4914527;29;20193;-83
2022/06/12 09:42:55;;;;;;;12.25;3.50;;;;;;;;;;4908658;29;20044;-80
2022/06/12 09:45:45;;;;;;;11.38;2.67;;;;;;;;;;4927609;29;20044;-84
2022/06/12 09:48:20;;;;;;;14.73;3.67;;;;;;;;;;4860348;29;20060;-79
2022/06/12 09:51:05;;;;;;;12.68;3.30;;;;;;;;;;4898601;29;20075;-78
2022/06/12 09:53:41;;;;;;;10.23;2.80;;;;;;;;;;4915559;29;20539;-77
2022/06/12 09:56:17;;;;;;;13.48;2.67;;;;;;;;;;4910315;29;20080;-77
2022/06/12 09:58:53;;;;;;;9.13;3.15;;;;;;;;;;4909620;29;20048;-78
2022/06/12 10:01:41;;;;;;;10.60;3.22;;;;;;;;;;4919060;29;21033;-76
2022/06/12 10:04:14;;;;;;;11.98;2.97;;;;;;;;;;4916187;29;20039;-86
2022/06/12 10:06:47;;;;;;;17.23;3.45;;;;;;;;;;4911772;29;20092;-76
2022/06/12 10:09:18;;;;;;;11.20;2.87;;;;;;;;;;4899812;29;20521;-81
2022/06/12 10:11:44;;;;;;;12.07;3.42;;;;;;;;;;4899140;29;20412;-81
2022/06/12 10:14:17;;;;;;;13.18;3.38;;;;;;;;;;4898257;29;20116;-79
2022/06/12 10:16:49;;;;;;;14.40;3.30;;;;;;;;;;4917713;29;20043;-81
2022/06/12 10:19:33;;;;;;;11.80;2.92;;;;;;;;;;4916826;29;20126;-78
2022/06/12 10:22:02;;;;;;;11.35;2.55;;;;;;;;;;4911300;29;20048;-80
2022/06/12 10:24:29;;;;;;;9.13;2.60;;;;;;;;;;4918717;29;20067;-79
2022/06/12 10:27:04;;;;;;;11.32;2.65;;;;;;;;;;4898146;29;20066;-81
2022/06/12 10:29:41;;;;;;;11.25;2.85;;;;;;;;;;4926771;29;20831;-78
2022/06/12 10:32:11;;;;;;;11.05;2.95;;;;;;;;;;4919060;29;20035;-77
2022/06/12 10:34:37;;;;;;;10.18;2.70;;;;;;;;;;4918112;29;20531;-80
2022/06/12 10:37:17;;;;;;;15.32;3.50;;;;;;;;;;4915265;29;20385;-78
2022/06/12 10:39:43;;;;;;;10.35;2.85;;;;;;;;;;4917866;29;20435;-83
2022/06/12 10:42:29;;;;;;;9.75;2.47;;;;;;;;;;4904944;29;20094;-79
2022/06/12 10:44:57;;;;;;;7.18;2.10;;;;;;;;;;4919836;29;20044;-82
2022/06/12 10:47:23;;;;;;;11.60;2.80;;;;;;;;;;4923399;29;20048;-87
2022/06/12 10:50:00;;;;;;;13.18;3.15;;;;;;;;;;4918520;29;20390;-83
2022/06/12 10:52:27;;;;;;;8.88;2.40;;;;;;;;;;4915096;29;20135;-81
2022/06/12 10:54:56;;;;;;;11.45;2.75;;;;;;;;;;4916936;29;20508;-84
2022/06/12 10:57:31;;;;;;;10.27;4.45;;;;;;;;;;4909934;29;20036;-83
2022/06/12 11:00:20;;;;;;;12.25;4.47;;;22.30;99.90;;;;;;4912707;29;20040;-80
2022/06/12 11:02:51;;;;;;;17.58;7.50;;;;;;;;;;4907666;29;20074;-82
2022/06/12 11:05:36;;;;;;;19.95;11.02;;;;;;;;;;4907282;29;20044;-83
2022/06/12 11:08:05;;;;;;;24.42;12.52;;;;;;;;;;4890945;29;20104;-85
2022/06/12 11:10:39;;;;;;;48.08;30.10;;;;;;;;;;4888529;29;20108;-80
2022/06/12 11:13:10;;;;;;;43.42;27.98;;;;;;;;;;4917587;29;20044;-79
2022/06/12 11:15:48;;;;;;;9.73;2.95;;;;;;;;;;4925010;29;20051;-81
2022/06/12 11:18:19;;;;;;;12.70;4.13;;;;;;;;;;4930434;29;20082;-78
2022/06/12 11:20:54;;;;;;;9.52;2.67;;;;;;;;;;4926762;29;20041;-86
2022/06/12 11:23:25;;;;;;;9.20;3.03;;;;;;;;;;4918999;29;20915;-87
2022/06/12 11:26:10;;;;;;;8.73;2.92;;;;;;;;;;4903440;29;20144;-85
2022/06/12 11:29:00;;;;;;;9.73;2.72;;;;;;;;;;4908973;29;20625;-88
2022/06/12 11:31:44;;;;;;;10.68;3.25;;;;;;;;;;4910076;29;21483;-83
2022/06/12 11:34:29;;;;;;;9.73;2.20;;;;;;;;;;4910992;29;20052;-84
2022/06/12 11:37:19;;;;;;;5.60;2.30;;;;;;;;;;4909571;29;20048;-83
2022/06/12 11:40:03;;;;;;;10.85;2.67;;;;;;;;;;4865614;29;20412;-82
2022/06/12 11:42:30;;;;;;;9.65;2.70;;;;;;;;;;4909214;29;20043;-81
2022/06/12 11:44:58;;;;;;;14.95;6.45;;;;;;;;;;4907097;29;20059;-83
2022/06/12 11:47:43;;;;;;;13.15;3.60;;;;;;;;;;4892680;29;20040;-80
2022/06/12 11:50:26;;;;;;;10.35;3.20;;;;;;;;;;4894270;29;20062;-83
2022/06/12 11:53:11;;;;;;;11.65;3.40;;;;;;;;;;4885558;29;20044;-83
2022/06/12 11:55:40;;;;;;;9.75;2.95;;;;;;;;;;4909944;29;20229;-83
2022/06/12 11:58:25;;;;;;;9.82;2.92;;;;;;;;;;4899546;29;20052;-81
2022/06/12 12:01:14;;;;;;;;;;;;;;;;;;;;;
2022/06/12 12:04:01;;;;;;;10.57;2.90;;;;;;;;;;4908397;29;20052;-82
2022/06/12 12:06:47;;;;;;;14.40;3.00;;;;;;;;;;4896246;29;20990;-81
2022/06/12 12:09:38;;;;;;;13.68;3.00;;;;;;;;;;4893796;29;20539;-80
2022/06/12 12:12:07;;;;;;;8.55;2.78;;;;;;;;;;4889636;29;20064;-79
2022/06/12 12:14:35;;;;;;;10.60;2.10;;;;;;;;;;4908312;29;20044;-81
2022/06/12 12:17:09;;;;;;;6.28;2.33;;;;;;;;;;4905434;29;20043;-80
2022/06/12 12:19:45;;;;;;;7.85;2.58;;;;;;;;;;4903895;29;20069;-81
2022/06/12 12:22:16;;;;;;;7.18;2.08;;;;;;;;;;4887895;29;20044;-81
2022/06/12 12:25:03;;;;;;;6.95;2.05;;;;;;;;;;4909437;29;20102;-85
2022/06/12 12:27:39;;;;;;;8.10;2.20;;;;;;;;;;4899411;29;20150;-83
2022/06/12 12:30:38;;;;;;;10.65;1.92;;;;;;;;;;4871444;29;20476;-85
2022/06/12 12:33:05;;;;;;;10.55;2.58;;;;;;;;;;4890734;29;20064;-80
2022/06/12 12:41:14;;;;;;;8.48;2.80;;;;;;;;;;4900065;29;20078;-83
2022/06/12 12:43:50;;;;;;;4.78;1.58;;;;;;;;;;4905152;29;20143;-83
2022/06/12 12:46:16;;;;;;;4.65;1.77;;;;;;;;;;4905795;29;20072;-86
2022/06/12 12:48:46;;;;;;;8.55;2.55;;;;;;;;;;4907423;29;20036;-83
2022/06/12 12:51:24;;;;;;;3.85;1.80;;;;;;;;;;4888633;29;20052;-82
2022/06/12 12:53:52;;;;;;;7.78;1.73;;;;;;;;;;4884640;29;20063;-85
2022/06/12 12:56:27;;;;;;;7.22;1.80;;;;;;;;;;4902986;29;20044;-81
2022/06/12 12:58:58;;;;;;;6.22;1.63;;;;;;;;;;4899494;29;20028;-81
2022/06/12 13:01:26;;;;;;;10.90;4.82;;;;;;;;;;4906334;29;20488;-80
2022/06/12 13:04:13;;;;;;;14.65;9.68;;;;;;;;;;4904454;29;20072;-80
2022/06/12 13:06:59;;;;;;;26.85;16.38;;;;;;;;;;4906066;29;20122;-82
2022/06/12 13:09:42;;;;;;;28.38;11.02;;;;;;;;;;4906993;29;20033;-80
2022/06/12 13:12:27;;;;;;;36.97;19.35;;;;;;;;;;4887667;29;20048;-81
2022/06/12 13:15:00;;;;;;;89.70;50.90;;;;;;;;;;4906719;29;20040;-80
2022/06/12 13:17:38;;;;;;;43.42;24.65;;;;;;;;;;4906274;29;20098;-84
2022/06/12 13:20:22;;;;;;;44.40;20.50;;;;;;;;;;4906240;29;20772;-84
2022/06/12 13:22:51;;;;;;;20.10;7.18;;;;;;;;;;4901056;29;20046;-81
2022/06/12 13:25:20;;;;;;;36.38;20.10;;;;;;;;;;4903134;29;20056;-80
2022/06/12 13:28:07;;;;;;;27.65;15.20;;;;;;;;;;4906498;29;20056;-81
2022/06/12 13:30:34;;;;;;;19.60;9.75;;;;;;;;;;4905868;29;20069;-84
2022/06/12 13:33:11;;;;;;;13.43;5.85;;;;;;;;;;4908480;29;20053;-81
2022/06/12 13:35:45;;;;;;;19.95;10.02;;;;;;;;;;4904527;29;20037;-84
2022/06/12 13:38:22;;;;;;;11.90;3.65;;;;;;;;;;4909551;29;20063;-81
2022/06/12 13:40:55;;;;;;;10.57;4.28;;;;;;;;;;4910663;29;20040;-80
2022/06/12 13:43:36;;;;;;;13.70;6.72;;;;;;;;;;4908688;29;20075;-80
2022/06/12 13:46:05;;;;;;;16.35;8.05;;;;;;;;;;4909379;29;20054;-80
2022/06/12 13:48:35;;;;;;;15.55;3.75;;;;;;;;;;4911460;29;20040;-81
2022/06/12 13:51:13;;;;;;;15.00;4.10;;;;;;;;;;4911887;29;20211;-79
2022/06/12 13:53:44;;;;;;;15.85;4.57;;;;;;;;;;4908664;29;20169;-83
2022/06/12 13:56:13;;;;;;;14.35;10.82;;;;;;;;;;4906993;29;20052;-80
2022/06/12 13:58:40;;;;;;;15.98;5.40;;;;;;;;;;4909784;29;20118;-83
2022/06/12 14:01:15;;;;;;;13.35;3.35;;;;;;;;;;4907702;29;20094;-80
2022/06/12 14:03:52;;;;;;;10.25;3.30;;;;;;;;;;4909058;29;20504;-84
2022/06/12 14:06:28;;;;;;;17.60;5.28;;;;;;;;;;4906479;29;20554;-84
2022/06/12 14:09:14;;;;;;;15.93;3.58;;;;;;;;;;4895115;29;20517;-80
2022/06/12 14:11:44;;;;;;;10.23;3.58;;;;;;;;;;4911780;29;20044;-81
2022/06/12 14:14:25;;;;;;;18.92;5.35;;;;;;;;;;4893144;29;20032;-82
2022/06/12 14:16:52;;;;;;;25.73;4.60;;;;;;;;;;4890183;29;20676;-81
2022/06/12 14:19:27;;;;;;;15.73;4.18;;;;;;;;;;4901050;29;20040;-80
2022/06/12 14:22:12;;;;;;;18.40;6.35;;;;;;;;;;4923300;29;20147;-81
2022/06/12 14:24:41;;;;;;;19.95;4.75;;;;;;;;;;4918433;29;20116;-82
2022/06/12 14:27:29;;;;;;;19.95;6.90;;;;;;;;;;4903393;29;20245;-81
2022/06/12 14:32:46;;;;;;;15.88;6.47;;;;;;;;;;4906758;29;20051;-82
2022/06/12 14:35:12;;;;;;;15.73;4.07;;;;;;;;;;4908175;29;21928;-81
2022/06/12 14:37:42;;;;;;;12.30;5.25;;;;;;;;;;4905634;29;20036;-83
2022/06/12 14:40:23;;;;;;;13.52;3.75;;;;;;;;;;4907407;29;20056;-82
2022/06/12 14:43:10;;;;;;;16.73;4.60;;;;;;;;;;4904906;29;20167;-80
2022/06/12 14:45:36;;;;;;;19.77;8.77;;;;;;;;;;4908393;29;20094;-81
2022/06/12 14:48:09;;;;;;;9.65;4.63;;;;;;;;;;4872317;29;20040;-82
2022/06/12 14:50:39;;;;;;;14.88;6.35;;;;;;;;;;4906343;29;20052;-81
2022/06/12 14:53:15;;;;;;;17.33;4.97;;;;;;;;;;4906569;29;20048;-79
2022/06/12 14:55:42;;;;;;;11.63;5.97;;;;;;;;;;4904511;29;20565;-83
2022/06/12 14:58:13;;;;;;;13.98;4.85;;;;;;;;;;4889861;29;20048;-82
2022/06/12 15:01:00;;;;;;;17.40;8.30;;;;;;;;;;4890598;29;21020;-80
2022/06/12 15:03:26;;;;;;;12.90;4.20;;;;;;;;;;4908531;29;20033;-83
2022/06/12 15:05:56;;;;;;;12.07;3.30;;;;;;;;;;4892550;29;20576;-80
2022/06/12 15:11:30;;;;;;;13.75;5.38;;;;;;;;;;4896847;29;20055;-82
2022/06/12 15:14:00;;;;;;;13.05;4.20;;;;;;;;;;4912244;29;20249;-81
2022/06/12 15:16:31;;;;;;;10.65;3.55;;;;;;;;;;4911122;29;20052;-82
2022/06/12 15:18:58;;;;;;;11.55;3.50;;;;;;;;;;4893625;23;20416;-82
2022/06/12 15:21:27;;;;;;;11.95;3.35;;;;;;;;;;4871405;29;20059;-82
2022/06/12 15:23:53;;;;;;;10.68;3.03;;;;;;;;;;4895364;29;20048;-83
2022/06/12 15:31:56;;;;;;;7.45;3.03;;;;;;;;;;4890096;29;20047;-82
2022/06/12 15:34:34;;;;;;;8.98;2.78;;;;;;;;;;4870535;29;20449;-82
2022/06/12 15:37:18;;;;;;;11.25;3.47;;;;;;;;;;4868710;29;20051;-82
2022/06/12 15:39:52;;;;;;;10.27;2.92;;;;;;;;;;4888603;29;20044;-82